Estación municipal de Seva (Osona, P.N. del Montseny)

Consulta los datos en tiempo real de la estación municipal de Seva





Hora UTC 17:10
Temperatura 16.0 ºC
Suelo 15 cm 16.8 ºC
Humedad 67.0 %
Presión 1021.4 hPa
Pluja 0.0 mm
Velocidad viento 5.7 km/h
Dirección viento S
Radiación solar 131.1 W/m²

Webcam

Datos diarios 2026-05-02



Hora UTC (invierno +1h; verano +2h)
Temperatura (ºC) Humedad (%) Presión (hPa) Velocidad viento (km/h) Precipitación (mm) Radiación solar (W/m²)
Hora UTC Aire Suelo 15 cm Humedad Presión Vel. Dir. Vel. Max Dir. Intent. máx 5 min. Rad. Sol.
00:05 11.8 10.6 85.5 1025.8 1.2 E 1.2 E 0.0 0.1
00:10 11.8 10.8 85.1 1025.7 2.3 ENE 2.8 ENE 0.0 0.1
00:15 11.8 10.9 85.3 1025.6 2.5 NNE 4.9 N 0.0 0.0
00:20 11.7 11.1 85.5 1025.5 2.2 NNE 4.6 N 0.0 0.1
00:25 11.7 11.1 83.0 1025.5 0.8 N 2.5 NNE 0.0 0.1
00:30 11.8 11.2 81.0 1025.5 4.0 WNW 7.4 W 0.0 0.0
00:35 11.5 11.2 81.6 1025.6 3.6 WNW 6.5 W 0.0 0.0
00:40 11.4 11.2 82.1 1025.5 2.3 NW 3.9 NW 0.0 0.1
00:45 11.3 11.1 82.5 1025.5 2.9 N 4.2 NNE 0.0 0.1
00:50 11.4 11.0 82.8 1025.5 1.1 NE 3.2 NNE 0.0 0.0
00:55 11.4 11.0 82.1 1025.5 1.3 NNW 3.9 NW 0.0 0.0
01:00 11.3 11.0 81.9 1025.4 1.8 NW 2.8 WNW 0.0 0.1
01:05 11.2 11.0 83.1 1025.4 2.2 NW 3.2 NW 0.0 0.0
01:10 11.1 10.9 83.7 1025.4 2.4 N 4.2 NNE 0.0 0.1
01:15 11.1 10.9 83.8 1025.4 2.0 NE 4.6 ENE 0.0 0.0
01:20 11.1 10.8 83.9 1025.3 3.6 ENE 5.3 ENE 0.0 0.0
01:25 11.2 10.8 84.2 1025.3 2.1 NNE 5.3 N 0.0 0.1
01:30 11.3 10.9 83.9 1025.2 1.0 NNE 3.5 NNE 0.0 0.0
01:35 11.3 10.9 83.9 1025.2 0.6 ENE 2.5 ENE 0.0 0.1
01:40 11.4 10.9 83.7 1025.1 1.2 E 2.5 E 0.0 0.0
01:45 11.4 10.8 83.6 1025.1 2.8 ENE 5.3 ENE 0.0 0.1
01:50 11.5 11.0 83.6 1025.0 0.5 NE 2.5 NNE 0.0 0.1
01:55 11.5 11.0 84.3 1025.0 0.7 N 2.1 N 0.0 0.1
02:00 11.5 11.1 84.3 1025.0 0.2 NE 1.4 NE 0.0 0.1
02:05 11.5 11.0 84.7 1024.9 0.8 N 2.1 ENE 0.0 0.1
02:10 11.4 11.0 85.5 1024.9 0.1 NNW 1.8 NNW 0.0 0.0
02:15 11.3 11.0 86.1 1024.9 0.1 SW 1.8 SSW 0.0 0.1
02:20 11.2 10.8 85.9 1024.9 3.0 SW 4.6 WSW 0.0 0.1
02:25 11.1 10.8 85.6 1024.8 2.0 W 3.5 WSW 0.0 0.1
02:30 11.0 10.8 85.5 1024.8 0.7 W 2.5 WSW 0.0 0.0
02:35 11.0 10.7 85.9 1024.8 2.2 WSW 3.5 WSW 0.0 0.1
02:40 11.0 10.7 86.1 1024.8 1.2 SW 2.6 WSW 0.0 0.1
02:45 11.0 10.7 85.9 1024.8 0.3 WSW 1.8 SW 0.0 0.0
02:50 11.0 10.6 85.6 1024.8 0.0 NNE 0.0 SSW 0.0 0.1
02:55 11.0 10.6 85.5 1024.8 0.0 NNE 0.0 NE 0.0 0.1
03:00 11.0 10.6 85.6 1024.8 0.1 SE 1.8 SE 0.0 0.1
03:05 11.0 10.6 85.4 1024.8 0.0 NNE 0.0 SSE 0.0 0.0
03:10 11.1 10.6 85.4 1024.8 0.0 NNE 0.0 W 0.0 0.1
03:15 11.1 10.6 85.3 1024.7 0.2 E 2.1 E 0.0 0.1
03:20 11.1 10.6 85.5 1024.7 2.5 E 3.9 E 0.0 0.0
03:25 11.1 10.6 85.7 1024.6 2.4 E 3.5 E 0.0 0.1
03:30 11.1 10.7 85.3 1024.6 2.9 E 4.2 E 0.0 0.1
03:35 11.2 10.7 84.8 1024.5 2.9 NE 4.2 NE 0.0 0.1
03:40 11.2 10.7 83.9 1024.5 3.0 ENE 3.9 ENE 0.0 0.1
03:45 11.3 10.8 83.7 1024.5 1.7 ENE 3.5 ENE 0.0 0.0
03:50 11.4 10.9 83.6 1024.5 2.0 ENE 3.4 E 0.0 0.0
03:55 11.4 10.9 84.0 1024.5 2.2 E 3.2 ESE 0.0 0.1
04:00 11.4 10.9 84.1 1024.4 2.0 E 3.9 ENE 0.0 0.1
04:05 11.4 11.0 83.6 1024.4 2.9 E 4.6 E 0.0 0.1
04:10 11.5 11.0 82.8 1024.4 2.8 E 5.3 E 0.0 0.0
04:15 11.6 11.0 81.8 1024.4 0.8 ESE 2.8 ENE 0.0 0.1
04:20 11.7 11.1 81.4 1024.4 0.4 W 2.1 WSW 0.0 0.1
04:25 11.8 11.1 81.4 1024.3 0.3 WSW 1.8 WSW 0.0 0.1
04:30 11.7 11.1 81.7 1024.3 0.0 NNE 0.0 S 0.0 0.1
04:35 11.7 11.1 82.1 1024.3 0.4 NE 2.5 NE 0.0 0.7
04:40 11.8 11.1 83.3 1024.3 2.3 WNW 3.9 WNW 0.0 0.8
04:45 11.7 11.2 82.8 1024.3 1.7 WNW 3.2 WNW 0.0 1.5
04:50 11.7 11.2 82.4 1024.4 1.8 W 3.5 W 0.0 1.5
04:55 11.7 11.2 82.7 1024.4 0.3 SSE 2.1 SSE 0.0 1.8
05:00 11.7 11.1 83.3 1024.4 1.4 SSE 2.5 S 0.0 1.8
05:05 11.7 11.1 82.8 1024.5 1.0 SSE 2.5 S 0.0 3.3
05:10 11.7 11.1 83.1 1024.5 3.5 SSE 5.6 SE 0.0 2.7
05:15 11.7 11.1 82.7 1024.6 1.5 SE 4.9 ESE 0.0 2.6
05:20 11.7 11.1 82.6 1024.5 0.8 SE 2.1 ESE 0.0 2.9
05:25 11.7 11.1 82.9 1024.5 2.5 SSE 3.9 SSE 0.0 2.8
05:30 11.7 11.1 82.3 1024.6 3.1 SSE 4.2 SE 0.0 3.2
05:35 11.8 11.2 81.9 1024.5 1.2 SSE 3.9 S 0.0 7.7
05:40 11.8 11.3 81.9 1024.6 0.7 S 3.2 SSE 0.0 13.5
05:45 11.9 11.4 81.7 1024.7 1.4 S 4.2 SSE 0.0 17.3
05:50 12.1 11.6 82.0 1024.7 3.9 W 6.4 WSW 0.0 17.4
05:55 12.0 11.7 83.7 1024.8 3.4 W 6.4 W 0.0 13.7
06:00 11.9 11.7 84.7 1024.9 1.2 WNW 3.5 W 0.0 15.8
06:05 11.9 11.8 84.6 1024.8 0.0 WNW 1.4 W 0.0 23.2
06:10 11.9 11.8 84.1 1024.8 0.4 N 1.8 NNE 0.0 26.9
06:15 12.0 11.8 84.2 1024.8 1.7 E 3.5 E 0.0 30.4
06:20 12.0 11.8 83.9 1024.8 1.9 ENE 3.5 E 0.0 38.5
06:25 12.1 12.0 83.4 1024.8 1.7 ENE 4.6 E 0.0 47.2
06:30 12.2 12.2 83.8 1024.8 2.0 E 3.5 E 0.0 57.1
06:35 12.3 12.4 83.0 1024.8 0.9 E 2.8 ENE 0.0 62.0
06:40 12.4 12.6 82.7 1024.8 2.7 E 3.9 E 0.0 66.4
06:45 12.5 12.7 82.3 1024.8 2.8 E 4.2 E 0.0 71.8
06:50 12.7 12.8 82.2 1024.8 2.5 ESE 5.6 SE 0.0 76.2
06:55 12.8 13.0 81.4 1024.9 3.3 SSE 6.7 S 0.0 68.3
07:00 13.0 13.1 79.4 1024.9 3.7 S 7.1 SSE 0.0 66.2
07:05 13.0 13.2 78.6 1024.9 4.1 SSE 9.5 S 0.0 70.0
07:10 13.1 13.3 78.4 1024.9 2.9 SSE 8.1 S 0.0 82.3
07:15 13.2 13.4 77.4 1024.9 3.6 SSE 8.1 SSE 0.0 75.1
07:20 13.2 13.4 77.0 1024.9 3.2 S 6.0 SSE 0.0 76.2
07:25 13.3 13.5 77.4 1024.8 2.1 SSW 4.9 S 0.0 84.3
07:30 13.5 13.8 77.7 1024.8 1.5 SSW 6.0 SW 0.0 89.5
07:35 13.6 14.1 76.9 1024.8 3.6 SSW 8.5 SW 0.0 129.0
07:40 13.8 14.5 76.1 1024.8 2.8 SSW 7.1 S 0.0 167.3
07:45 14.0 14.9 75.5 1024.9 5.1 SSW 9.5 SW 0.0 142.3
07:50 14.1 15.1 75.6 1024.8 1.6 SSW 6.4 SSW 0.0 150.4
07:55 14.3 15.3 74.3 1024.8 3.1 SW 7.4 SW 0.0 141.2
08:00 14.3 15.3 74.1 1024.8 3.1 SW 7.4 WSW 0.0 133.3
08:05 14.2 15.2 73.8 1024.9 4.4 SW 9.5 SSW 0.0 153.9
08:10 14.3 15.3 73.3 1024.9 3.2 SSW 7.8 S 0.0 154.7
08:15 14.3 15.4 71.2 1024.9 3.9 SSW 8.5 SSW 0.0 150.4
08:20 14.4 15.5 70.5 1024.9 2.3 SSW 6.4 SW 0.0 153.9
08:25 14.4 15.4 69.2 1024.9 4.1 SSW 7.1 S 0.0 105.5
08:30 14.4 15.2 68.7 1024.9 3.3 SSW 6.0 SSW 0.0 105.6
08:35 14.5 15.3 69.2 1024.9 2.4 SW 4.9 SW 0.0 134.3
08:40 14.6 15.4 69.3 1025.0 2.1 SW 5.3 SW 0.0 103.1
08:45 14.5 15.2 68.3 1025.0 2.1 WSW 4.2 W 0.0 71.2
08:50 14.4 15.0 68.8 1025.0 2.5 WSW 4.6 SW 0.0 90.4
08:55 14.5 15.2 68.8 1025.0 2.0 SW 4.6 SW 0.0 128.5
09:00 14.7 15.5 67.4 1025.0 2.8 SW 4.6 WSW 0.0 125.3
09:05 14.7 15.6 67.4 1025.0 3.1 WSW 4.2 SW 0.0 126.7
09:10 14.5 15.7 71.3 1025.1 6.1 WNW 8.5 NW 0.0 110.8
09:15 13.9 15.3 77.5 1025.1 6.1 NW 7.8 NW 0.0 89.3
09:20 13.8 15.0 77.4 1025.1 4.8 NNW 6.2 NW 0.0 117.5
09:25 13.9 15.0 75.7 1025.1 4.9 NNW 6.7 NNW 0.0 144.9
09:30 14.0 15.3 72.9 1025.1 3.7 NW 6.0 NNW 0.0 180.6
09:35 14.3 16.1 74.7 1025.0 3.9 NW 5.3 WNW 0.0 276.9
09:40 14.5 17.1 72.7 1025.0 4.7 NW 6.4 NW 0.0 249.0
09:45 14.5 17.1 74.1 1025.0 5.8 NW 7.8 NW 0.0 234.5
09:50 14.5 17.2 75.4 1025.0 5.1 NW 7.1 NW 0.0 231.9
09:55 14.5 17.5 74.3 1024.9 5.6 NW 9.5 W 0.0 288.0
10:00 14.6 18.0 74.1 1024.8 6.3 NW 8.5 WNW 0.0 333.1
10:05 14.8 18.4 72.6 1024.8 5.7 WNW 8.5 WNW 0.0 334.6
10:10 14.8 18.8 72.3 1024.8 5.6 NW 8.5 NW 0.0 320.1
10:15 15.1 18.9 72.8 1024.8 6.6 NW 9.9 NW 0.0 377.2
10:20 15.1 19.0 72.4 1024.7 6.6 NW 9.9 WNW 0.0 381.5
10:25 15.3 19.4 69.7 1024.7 5.8 WNW 8.8 W 0.0 371.7
10:30 15.4 19.8 70.5 1024.8 7.4 WNW 10.2 NW 0.0 382.3
10:35 15.4 20.2 70.6 1024.8 7.3 WNW 10.6 WNW 0.0 470.1
10:40 15.4 20.4 71.5 1024.8 7.0 NW 10.9 NW 0.0 378.1
10:45 15.3 19.9 72.6 1024.8 8.3 WNW 12.0 NW 0.0 281.7
10:50 15.2 19.0 72.0 1024.8 8.7 NW 12.0 NW 0.0 219.8
10:55 15.0 18.2 72.3 1024.8 5.8 NW 10.2 NW 0.0 200.0
11:00 14.9 18.0 72.1 1024.7 6.8 NW 9.9 NW 0.0 248.9
11:05 14.9 18.1 72.1 1024.6 5.5 NW 7.4 WNW 0.0 272.8
11:10 15.2 18.6 71.2 1024.4 4.5 N 7.1 NNE 0.0 356.5
11:15 15.5 19.2 68.7 1024.3 5.4 NNW 8.8 NNW 0.0 380.2
11:20 15.5 19.7 68.4 1024.3 6.2 NW 10.2 NNW 0.0 421.6
11:25 15.8 20.6 68.0 1024.2 4.5 NW 8.1 NNW 0.0 463.4
11:30 16.2 21.4 66.0 1024.1 5.8 NNW 8.8 NNW 0.0 491.2
11:35 16.3 21.8 64.2 1024.0 5.1 NW 8.5 N 0.0 492.4
11:40 16.5 22.3 63.2 1024.0 4.4 NW 7.8 NW 0.0 579.9
11:45 17.1 23.4 63.7 1024.0 4.5 WNW 9.2 WNW 0.0 628.0
11:50 17.0 23.5 63.2 1024.0 8.8 NW 13.1 WNW 0.0 549.2
11:55 16.9 23.2 63.4 1024.0 6.1 NW 12.4 NW 0.0 485.0
12:00 16.7 22.8 64.5 1023.9 5.0 NW 9.9 WNW 0.0 510.2
12:05 17.1 22.8 62.3 1023.9 4.9 NNW 10.6 WNW 0.0 592.7
12:10 17.2 23.3 60.9 1023.9 1.8 ESE 5.3 SE 0.0 500.2
12:15 17.5 23.3 60.5 1023.8 3.6 ESE 7.4 ESE 0.0 641.7
12:20 17.9 23.6 56.4 1023.8 2.0 W 4.6 N 0.0 583.6
12:25 18.3 24.3 53.3 1023.7 8.0 SW 20.8 W 0.0 672.8
12:30 18.2 24.2 58.7 1023.6 10.4 W 18.4 WSW 0.0 581.8
12:35 18.4 24.4 56.4 1023.6 10.8 WSW 16.2 SW 0.0 804.0
12:40 18.9 25.8 50.9 1023.5 5.8 WSW 11.6 W 0.0 962.0
12:45 18.9 26.9 51.4 1023.5 4.3 SW 10.6 WSW 0.0 566.8
12:50 18.8 25.5 48.6 1023.5 7.0 ESE 13.8 ESE 0.0 477.1
12:55 18.8 24.1 51.5 1023.5 3.5 SSW 13.1 S 0.0 402.4
13:00 19.3 24.1 49.7 1023.5 6.1 SSW 16.2 SW 0.0 484.6
13:05 18.9 23.3 46.9 1023.4 9.6 S 19.1 S 0.0 471.0
13:10 19.1 23.5 45.8 1023.4 8.1 S 19.4 SSE 0.0 737.3
13:15 19.2 24.2 44.7 1023.4 11.7 S 24.7 SSE 0.0 831.0
13:20 19.6 25.1 45.5 1023.3 10.4 SSW 22.2 SSW 0.0 709.6
13:25 19.9 25.7 45.9 1023.2 9.0 SSW 22.9 SSW 0.0 822.0
13:30 20.2 26.6 45.4 1023.2 9.7 SSW 20.1 SW 0.0 814.0
13:35 20.0 26.2 45.5 1023.2 8.6 SSW 19.1 SSE 0.0 384.9
13:40 19.5 24.9 45.0 1023.1 8.4 S 19.8 SSW 0.0 594.8
13:45 19.8 25.0 44.3 1023.0 9.2 SSW 23.6 SSW 0.0 534.2
13:50 19.0 23.7 43.7 1023.0 12.5 S 26.1 S 0.0 407.2
13:55 19.0 23.0 43.7 1023.0 8.6 S 21.2 WSW 0.0 564.3
14:00 19.2 23.5 42.5 1023.0 11.2 S 23.3 SSW 0.0 530.4
14:05 18.7 22.6 43.6 1023.0 10.9 SSW 22.6 SSW 0.0 262.8
14:10 18.4 21.3 45.0 1023.0 6.5 SSW 15.5 SSW 0.0 186.1
14:15 18.2 20.7 46.0 1022.9 8.3 SSW 19.4 SSW 0.0 245.1
14:20 18.2 20.4 48.0 1022.8 6.8 SSW 17.3 SSW 0.0 335.9
14:25 18.3 20.8 47.5 1022.8 9.0 S 19.8 S 0.0 293.6
14:30 17.8 20.3 49.6 1022.6 10.2 S 20.8 S 0.0 330.9
14:35 17.9 20.3 51.7 1022.5 8.6 SSW 19.4 SSW 0.0 296.7
14:40 18.1 20.5 51.1 1022.4 8.5 SSW 16.2 SSW 0.0 305.5
14:45 17.8 20.4 50.4 1022.4 9.9 S 21.9 SSW 0.0 366.3
14:50 18.0 20.8 51.5 1022.3 6.9 S 14.5 S 0.0 371.7
14:55 18.0 21.0 52.9 1022.3 8.2 SSW 15.9 SW 0.0 297.3
15:00 18.0 20.9 54.3 1022.3 6.7 SSW 16.6 S 0.0 316.5
15:05 18.1 21.1 54.5 1022.3 7.4 SSW 16.2 SSW 0.0 324.9
15:10 18.1 20.9 55.2 1022.3 8.0 SSW 15.9 S 0.0 282.7
15:15 17.9 20.5 55.7 1022.3 9.3 SSW 18.7 SSW 0.0 257.2
15:20 17.6 20.0 55.3 1022.2 7.5 S 17.3 S 0.0 256.0
15:25 17.6 19.9 54.1 1022.2 6.6 SSW 15.9 SSW 0.0 299.3
15:30 18.0 20.8 52.8 1022.0 6.6 SSW 13.1 S 0.0 431.0
15:35 18.2 22.2 51.0 1021.9 6.4 SSW 13.8 SW 0.0 457.8
15:40 18.5 23.0 49.7 1021.9 7.7 S 18.0 S 0.0 447.4
15:45 18.4 22.1 50.7 1021.9 6.8 S 13.8 S 0.0 254.2
15:50 18.0 20.7 50.0 1021.9 7.7 SSE 17.3 SSE 0.0 222.3
15:55 17.7 20.0 54.0 1021.8 8.3 SSW 16.2 SSW 0.0 218.7
16:00 17.6 19.5 54.5 1021.8 5.3 SE 13.8 S 0.0 222.2
16:05 17.5 19.3 52.9 1021.7 6.1 S 17.6 SSE 0.0 229.1
16:10 17.4 19.2 53.3 1021.7 8.7 SSW 16.6 SSW 0.0 214.5
16:15 17.2 18.8 52.4 1021.8 9.0 SSW 18.4 S 0.0 163.7
16:20 17.0 18.4 54.2 1021.8 8.0 S 17.6 SSE 0.0 119.4
16:25 16.7 17.7 56.5 1021.8 9.1 S 20.8 S 0.0 113.2
16:30 16.4 17.3 58.9 1021.8 9.6 S 20.5 SSW 0.0 93.0
16:35 16.2 16.8 61.5 1021.8 8.6 S 16.9 SSE 0.0 75.9
16:40 16.0 16.5 64.1 1021.8 7.9 S 17.3 SE 0.0 74.2
16:45 15.9 16.3 66.4 1021.7 4.3 S 12.0 S 0.0 88.1
16:50 15.9 16.4 67.6 1021.7 5.5 S 11.6 S 0.0 114.7
16:55 16.0 16.7 67.6 1021.6 3.7 S 9.7 S 0.0 146.2
17:00 16.0 16.9 67.7 1021.6 4.0 SSW 9.2 SW 0.0 134.1
17:05 16.1 17.0 67.4 1021.5 6.0 SSW 14.5 SSW 0.0 133.0
17:10 16.0 16.8 67.0 1021.4 5.7 S 13.1 SSE 0.0 131.1
Máxima 20.2 26.9 86.1 1025.8 12.5 S 26.1 S 0.0 962.0
Mínima 11.0 10.6 42.5 1021.4
Total 0.0